sensor_id;sensor_type;location;lat;lon;timestamp;temperature;humidity
30520;DHT22;17300;50.374;8.006;2023-08-06T00:00:58;20.20;58.00
30520;DHT22;17300;50.374;8.006;2023-08-06T00:03:25;20.20;58.10
30520;DHT22;17300;50.374;8.006;2023-08-06T00:05:52;20.20;58.30
30520;DHT22;17300;50.374;8.006;2023-08-06T00:08:18;20.20;58.50
30520;DHT22;17300;50.374;8.006;2023-08-06T00:10:48;20.20;58.70
30520;DHT22;17300;50.374;8.006;2023-08-06T00:13:15;20.30;59.30
30520;DHT22;17300;50.374;8.006;2023-08-06T00:15:41;20.30;59.20
30520;DHT22;17300;50.374;8.006;2023-08-06T00:18:08;20.40;59.40
30520;DHT22;17300;50.374;8.006;2023-08-06T00:20:35;20.50;59.30
30520;DHT22;17300;50.374;8.006;2023-08-06T00:23:01;20.60;59.10
30520;DHT22;17300;50.374;8.006;2023-08-06T00:25:28;20.60;58.90
30520;DHT22;17300;50.374;8.006;2023-08-06T00:27:56;20.70;58.60
30520;DHT22;17300;50.374;8.006;2023-08-06T00:30:23;20.70;58.60
30520;DHT22;17300;50.374;8.006;2023-08-06T00:32:49;20.70;58.40
30520;DHT22;17300;50.374;8.006;2023-08-06T00:35:16;20.70;58.50
30520;DHT22;17300;50.374;8.006;2023-08-06T00:37:43;20.70;58.50
30520;DHT22;17300;50.374;8.006;2023-08-06T00:40:09;20.70;58.70
30520;DHT22;17300;50.374;8.006;2023-08-06T00:42:36;20.80;58.70
30520;DHT22;17300;50.374;8.006;2023-08-06T00:45:05;20.80;58.40
30520;DHT22;17300;50.374;8.006;2023-08-06T00:47:32;20.80;58.50
30520;DHT22;17300;50.374;8.006;2023-08-06T00:49:58;20.80;58.30
30520;DHT22;17300;50.374;8.006;2023-08-06T00:52:25;20.80;58.20
30520;DHT22;17300;50.374;8.006;2023-08-06T00:54:52;20.80;58.20
30520;DHT22;17300;50.374;8.006;2023-08-06T00:57:20;20.70;58.10
30520;DHT22;17300;50.374;8.006;2023-08-06T00:59:48;20.70;58.20
30520;DHT22;17300;50.374;8.006;2023-08-06T01:02:16;20.70;58.50
30520;DHT22;17300;50.374;8.006;2023-08-06T01:04:43;20.70;58.70
30520;DHT22;17300;50.374;8.006;2023-08-06T01:07:19;20.70;58.60
30520;DHT22;17300;50.374;8.006;2023-08-06T01:09:52;20.70;58.80
30520;DHT22;17300;50.374;8.006;2023-08-06T01:12:28;20.70;58.80
30520;DHT22;17300;50.374;8.006;2023-08-06T01:15:05;20.70;58.50
30520;DHT22;17300;50.374;8.006;2023-08-06T01:17:35;20.70;58.20
30520;DHT22;17300;50.374;8.006;2023-08-06T01:20:03;20.60;57.90
30520;DHT22;17300;50.374;8.006;2023-08-06T01:22:31;20.70;57.90
30520;DHT22;17300;50.374;8.006;2023-08-06T01:24:58;20.70;57.90
30520;DHT22;17300;50.374;8.006;2023-08-06T01:27:28;20.60;57.80
30520;DHT22;17300;50.374;8.006;2023-08-06T01:30:02;20.60;58.00
30520;DHT22;17300;50.374;8.006;2023-08-06T01:32:32;20.60;58.20
30520;DHT22;17300;50.374;8.006;2023-08-06T01:35:00;20.60;58.30
30520;DHT22;17300;50.374;8.006;2023-08-06T01:37:29;20.60;58.40
30520;DHT22;17300;50.374;8.006;2023-08-06T01:39:57;20.50;58.70
30520;DHT22;17300;50.374;8.006;2023-08-06T01:42:24;20.60;59.00
30520;DHT22;17300;50.374;8.006;2023-08-06T01:44:50;20.60;58.90
30520;DHT22;17300;50.374;8.006;2023-08-06T01:47:17;20.60;58.80
30520;DHT22;17300;50.374;8.006;2023-08-06T01:49:44;20.60;58.80
30520;DHT22;17300;50.374;8.006;2023-08-06T01:52:10;20.60;58.70
30520;DHT22;17300;50.374;8.006;2023-08-06T01:54:37;20.60;58.70
30520;DHT22;17300;50.374;8.006;2023-08-06T01:57:06;20.60;58.70
30520;DHT22;17300;50.374;8.006;2023-08-06T01:59:32;20.60;58.80
30520;DHT22;17300;50.374;8.006;2023-08-06T02:01:59;20.60;58.80
30520;DHT22;17300;50.374;8.006;2023-08-06T02:04:25;20.60;58.80
30520;DHT22;17300;50.374;8.006;2023-08-06T02:06:52;20.60;58.80
30520;DHT22;17300;50.374;8.006;2023-08-06T02:09:19;20.60;58.90
30520;DHT22;17300;50.374;8.006;2023-08-06T02:11:45;20.50;58.90
30520;DHT22;17300;50.374;8.006;2023-08-06T02:14:13;20.50;59.10
30520;DHT22;17300;50.374;8.006;2023-08-06T02:16:40;20.60;59.20
30520;DHT22;17300;50.374;8.006;2023-08-06T02:19:07;20.60;59.00
30520;DHT22;17300;50.374;8.006;2023-08-06T02:21:33;20.60;59.00
30520;DHT22;17300;50.374;8.006;2023-08-06T02:24:00;20.60;58.90
30520;DHT22;17300;50.374;8.006;2023-08-06T02:26:27;20.60;58.80
30520;DHT22;17300;50.374;8.006;2023-08-06T02:28:53;20.60;58.80
30520;DHT22;17300;50.374;8.006;2023-08-06T02:31:21;20.60;58.80
30520;DHT22;17300;50.374;8.006;2023-08-06T02:33:48;20.60;59.00
30520;DHT22;17300;50.374;8.006;2023-08-06T02:36:15;20.60;59.00
30520;DHT22;17300;50.374;8.006;2023-08-06T02:38:41;20.60;59.00
30520;DHT22;17300;50.374;8.006;2023-08-06T02:41:08;20.60;59.20
30520;DHT22;17300;50.374;8.006;2023-08-06T02:43:35;20.50;59.20
30520;DHT22;17300;50.374;8.006;2023-08-06T02:46:02;20.50;59.20
30520;DHT22;17300;50.374;8.006;2023-08-06T02:48:30;20.60;59.20
30520;DHT22;17300;50.374;8.006;2023-08-06T02:50:59;20.60;59.20
30520;DHT22;17300;50.374;8.006;2023-08-06T02:53:26;20.60;59.30
30520;DHT22;17300;50.374;8.006;2023-08-06T02:55:53;20.60;59.10
30520;DHT22;17300;50.374;8.006;2023-08-06T02:58:20;20.60;59.10
30520;DHT22;17300;50.374;8.006;2023-08-06T03:00:59;20.50;59.10
30520;DHT22;17300;50.374;8.006;2023-08-06T03:03:25;20.50;59.60
30520;DHT22;17300;50.374;8.006;2023-08-06T03:05:53;20.50;59.10
30520;DHT22;17300;50.374;8.006;2023-08-06T03:08:20;20.50;59.20
30520;DHT22;17300;50.374;8.006;2023-08-06T03:10:48;20.40;59.10
30520;DHT22;17300;50.374;8.006;2023-08-06T03:13:14;20.40;59.20
30520;DHT22;17300;50.374;8.006;2023-08-06T03:15:41;20.40;59.20
30520;DHT22;17300;50.374;8.006;2023-08-06T03:18:08;20.40;59.30
30520;DHT22;17300;50.374;8.006;2023-08-06T03:20:34;20.40;59.40
30520;DHT22;17300;50.374;8.006;2023-08-06T03:23:02;20.30;59.40
30520;DHT22;17300;50.374;8.006;2023-08-06T03:25:29;20.30;59.50
30520;DHT22;17300;50.374;8.006;2023-08-06T03:27:56;20.30;59.50
30520;DHT22;17300;50.374;8.006;2023-08-06T03:30:22;20.30;60.20
30520;DHT22;17300;50.374;8.006;2023-08-06T03:32:49;20.30;59.60
30520;DHT22;17300;50.374;8.006;2023-08-06T03:35:16;20.30;59.60
30520;DHT22;17300;50.374;8.006;2023-08-06T03:37:42;20.30;59.70
30520;DHT22;17300;50.374;8.006;2023-08-06T03:40:11;20.30;59.70
30520;DHT22;17300;50.374;8.006;2023-08-06T03:42:37;20.30;59.80
30520;DHT22;17300;50.374;8.006;2023-08-06T03:45:05;20.20;59.80
30520;DHT22;17300;50.374;8.006;2023-08-06T03:47:32;20.30;59.90
30520;DHT22;17300;50.374;8.006;2023-08-06T03:49:58;20.20;59.90
30520;DHT22;17300;50.374;8.006;2023-08-06T03:52:25;20.30;59.90
30520;DHT22;17300;50.374;8.006;2023-08-06T03:54:52;20.30;59.90
30520;DHT22;17300;50.374;8.006;2023-08-06T03:57:20;20.30;59.90
30520;DHT22;17300;50.374;8.006;2023-08-06T03:59:46;20.20;59.90
30520;DHT22;17300;50.374;8.006;2023-08-06T04:02:13;20.30;60.00
30520;DHT22;17300;50.374;8.006;2023-08-06T04:04:40;20.20;60.00
30520;DHT22;17300;50.374;8.006;2023-08-06T04:07:06;20.20;59.90
30520;DHT22;17300;50.374;8.006;2023-08-06T04:09:33;20.20;59.90
30520;DHT22;17300;50.374;8.006;2023-08-06T04:12:00;20.30;60.10
30520;DHT22;17300;50.374;8.006;2023-08-06T04:14:29;20.20;60.00
30520;DHT22;17300;50.374;8.006;2023-08-06T04:16:56;20.20;60.10
30520;DHT22;17300;50.374;8.006;2023-08-06T04:19:22;20.20;60.10
30520;DHT22;17300;50.374;8.006;2023-08-06T04:21:50;20.20;60.30
30520;DHT22;17300;50.374;8.006;2023-08-06T04:24:16;20.20;60.30
30520;DHT22;17300;50.374;8.006;2023-08-06T04:26:43;20.20;60.40
30520;DHT22;17300;50.374;8.006;2023-08-06T04:29:09;20.20;60.40
30520;DHT22;17300;50.374;8.006;2023-08-06T04:31:37;20.20;60.40
30520;DHT22;17300;50.374;8.006;2023-08-06T04:34:04;20.20;60.60
30520;DHT22;17300;50.374;8.006;2023-08-06T04:36:31;20.30;60.70
30520;DHT22;17300;50.374;8.006;2023-08-06T04:38:58;20.30;60.70
30520;DHT22;17300;50.374;8.006;2023-08-06T04:41:24;20.20;60.60
30520;DHT22;17300;50.374;8.006;2023-08-06T04:43:51;20.30;60.70
30520;DHT22;17300;50.374;8.006;2023-08-06T04:46:18;20.30;60.70
30520;DHT22;17300;50.374;8.006;2023-08-06T04:48:46;20.30;60.60
30520;DHT22;17300;50.374;8.006;2023-08-06T04:51:12;20.30;61.50
30520;DHT22;17300;50.374;8.006;2023-08-06T04:53:40;20.30;60.60
30520;DHT22;17300;50.374;8.006;2023-08-06T04:56:07;20.30;60.50
30520;DHT22;17300;50.374;8.006;2023-08-06T04:58:34;20.30;60.50
30520;DHT22;17300;50.374;8.006;2023-08-06T05:01:00;20.30;60.50
30520;DHT22;17300;50.374;8.006;2023-08-06T05:03:27;20.30;60.50
30520;DHT22;17300;50.374;8.006;2023-08-06T05:05:55;20.30;60.50
30520;DHT22;17300;50.374;8.006;2023-08-06T05:08:22;20.30;60.50
30520;DHT22;17300;50.374;8.006;2023-08-06T05:10:48;20.30;60.30
30520;DHT22;17300;50.374;8.006;2023-08-06T05:13:15;20.30;60.30
30520;DHT22;17300;50.374;8.006;2023-08-06T05:15:42;20.40;60.40
30520;DHT22;17300;50.374;8.006;2023-08-06T05:18:10;20.30;60.60
30520;DHT22;17300;50.374;8.006;2023-08-06T05:20:39;20.40;60.80
30520;DHT22;17300;50.374;8.006;2023-08-06T05:23:07;20.40;60.70
30520;DHT22;17300;50.374;8.006;2023-08-06T05:25:34;20.40;60.80
30520;DHT22;17300;50.374;8.006;2023-08-06T05:28:01;20.40;60.70
30520;DHT22;17300;50.374;8.006;2023-08-06T05:30:28;20.40;60.70
30520;DHT22;17300;50.374;8.006;2023-08-06T05:32:55;20.50;60.60
30520;DHT22;17300;50.374;8.006;2023-08-06T05:35:21;20.40;60.30
30520;DHT22;17300;50.374;8.006;2023-08-06T05:37:49;20.50;60.40
30520;DHT22;17300;50.374;8.006;2023-08-06T05:40:17;20.50;60.50
30520;DHT22;17300;50.374;8.006;2023-08-06T05:42:44;20.50;60.60
30520;DHT22;17300;50.374;8.006;2023-08-06T05:45:11;20.50;60.60
30520;DHT22;17300;50.374;8.006;2023-08-06T05:47:37;20.60;60.90
30520;DHT22;17300;50.374;8.006;2023-08-06T05:50:05;20.60;61.00
30520;DHT22;17300;50.374;8.006;2023-08-06T05:52:32;20.60;61.10
30520;DHT22;17300;50.374;8.006;2023-08-06T05:54:58;20.60;60.90
30520;DHT22;17300;50.374;8.006;2023-08-06T05:57:26;20.70;61.00
30520;DHT22;17300;50.374;8.006;2023-08-06T05:59:53;20.80;60.90
30520;DHT22;17300;50.374;8.006;2023-08-06T06:02:19;20.80;60.70
30520;DHT22;17300;50.374;8.006;2023-08-06T06:04:46;20.80;60.40
30520;DHT22;17300;50.374;8.006;2023-08-06T06:07:13;20.80;60.40
30520;DHT22;17300;50.374;8.006;2023-08-06T06:09:39;20.60;61.00
30520;DHT22;17300;50.374;8.006;2023-08-06T06:12:06;20.80;60.90
30520;DHT22;17300;50.374;8.006;2023-08-06T06:14:34;20.80;60.50
30520;DHT22;17300;50.374;8.006;2023-08-06T06:17:01;20.80;60.30
30520;DHT22;17300;50.374;8.006;2023-08-06T06:19:28;20.90;60.20
30520;DHT22;17300;50.374;8.006;2023-08-06T06:21:54;20.90;60.20
30520;DHT22;17300;50.374;8.006;2023-08-06T06:24:23;20.90;60.30
30520;DHT22;17300;50.374;8.006;2023-08-06T06:26:49;20.90;60.50
30520;DHT22;17300;50.374;8.006;2023-08-06T06:29:16;20.90;60.70
30520;DHT22;17300;50.374;8.006;2023-08-06T06:31:44;21.00;60.80
30520;DHT22;17300;50.374;8.006;2023-08-06T06:34:11;21.00;60.60
30520;DHT22;17300;50.374;8.006;2023-08-06T06:36:37;21.00;60.60
30520;DHT22;17300;50.374;8.006;2023-08-06T06:39:04;21.10;60.60
30520;DHT22;17300;50.374;8.006;2023-08-06T06:41:31;21.10;60.50
30520;DHT22;17300;50.374;8.006;2023-08-06T06:43:58;21.20;60.50
30520;DHT22;17300;50.374;8.006;2023-08-06T06:46:25;21.20;60.30
30520;DHT22;17300;50.374;8.006;2023-08-06T06:48:53;21.20;60.30
30520;DHT22;17300;50.374;8.006;2023-08-06T06:51:19;21.20;60.20
30520;DHT22;17300;50.374;8.006;2023-08-06T06:53:46;21.20;60.30
30520;DHT22;17300;50.374;8.006;2023-08-06T06:56:13;21.30;60.20
30520;DHT22;17300;50.374;8.006;2023-08-06T06:58:39;21.30;60.30
30520;DHT22;17300;50.374;8.006;2023-08-06T07:01:06;21.30;60.30
30520;DHT22;17300;50.374;8.006;2023-08-06T07:03:35;21.30;60.60
30520;DHT22;17300;50.374;8.006;2023-08-06T07:06:03;21.40;60.30
30520;DHT22;17300;50.374;8.006;2023-08-06T07:08:31;21.40;60.50
30520;DHT22;17300;50.374;8.006;2023-08-06T07:11:01;21.40;60.60
30520;DHT22;17300;50.374;8.006;2023-08-06T07:13:28;21.50;60.90
30520;DHT22;17300;50.374;8.006;2023-08-06T07:15:55;21.60;61.00
30520;DHT22;17300;50.374;8.006;2023-08-06T07:18:22;21.70;61.10
30520;DHT22;17300;50.374;8.006;2023-08-06T07:20:49;21.80;61.10
30520;DHT22;17300;50.374;8.006;2023-08-06T07:23:17;21.90;61.30
30520;DHT22;17300;50.374;8.006;2023-08-06T07:25:43;22.00;61.50
30520;DHT22;17300;50.374;8.006;2023-08-06T07:28:10;22.20;61.90
30520;DHT22;17300;50.374;8.006;2023-08-06T07:30:38;22.50;62.80
30520;DHT22;17300;50.374;8.006;2023-08-06T07:33:05;22.90;65.30
30520;DHT22;17300;50.374;8.006;2023-08-06T07:35:32;23.40;66.60
30520;DHT22;17300;50.374;8.006;2023-08-06T07:37:58;24.00;66.70
30520;DHT22;17300;50.374;8.006;2023-08-06T07:40:27;24.60;65.70
30520;DHT22;17300;50.374;8.006;2023-08-06T07:42:54;25.20;64.50
30520;DHT22;17300;50.374;8.006;2023-08-06T07:45:21;25.90;64.70
30520;DHT22;17300;50.374;8.006;2023-08-06T07:47:48;26.60;65.30
30520;DHT22;17300;50.374;8.006;2023-08-06T07:50:14;27.30;64.20
30520;DHT22;17300;50.374;8.006;2023-08-06T07:52:41;28.00;62.20
30520;DHT22;17300;50.374;8.006;2023-08-06T07:55:08;28.60;60.70
30520;DHT22;17300;50.374;8.006;2023-08-06T07:57:36;29.20;59.20
30520;DHT22;17300;50.374;8.006;2023-08-06T08:00:04;29.80;58.00
30520;DHT22;17300;50.374;8.006;2023-08-06T08:02:31;30.30;57.50
30520;DHT22;17300;50.374;8.006;2023-08-06T08:04:58;30.90;57.60
30520;DHT22;17300;50.374;8.006;2023-08-06T08:07:24;31.60;58.20
30520;DHT22;17300;50.374;8.006;2023-08-06T08:09:53;32.20;57.50
30520;DHT22;17300;50.374;8.006;2023-08-06T08:12:20;33.00;55.80
30520;DHT22;17300;50.374;8.006;2023-08-06T08:14:48;33.70;53.80
30520;DHT22;17300;50.374;8.006;2023-08-06T08:17:15;34.20;51.20
30520;DHT22;17300;50.374;8.006;2023-08-06T08:19:41;34.60;49.50
30520;DHT22;17300;50.374;8.006;2023-08-06T08:22:08;35.00;49.20
30520;DHT22;17300;50.374;8.006;2023-08-06T08:24:35;35.40;49.00
30520;DHT22;17300;50.374;8.006;2023-08-06T08:27:01;35.90;48.30
30520;DHT22;17300;50.374;8.006;2023-08-06T08:29:28;36.30;47.10
30520;DHT22;17300;50.374;8.006;2023-08-06T08:31:56;36.80;47.00
30520;DHT22;17300;50.374;8.006;2023-08-06T08:34:23;37.30;45.80
30520;DHT22;17300;50.374;8.006;2023-08-06T08:36:50;37.70;43.90
30520;DHT22;17300;50.374;8.006;2023-08-06T08:39:16;37.80;41.80
30520;DHT22;17300;50.374;8.006;2023-08-06T08:41:43;37.90;40.70
30520;DHT22;17300;50.374;8.006;2023-08-06T08:44:10;37.70;39.80
30520;DHT22;17300;50.374;8.006;2023-08-06T08:46:39;37.50;39.00
30520;DHT22;17300;50.374;8.006;2023-08-06T08:49:07;37.20;38.80
30520;DHT22;17300;50.374;8.006;2023-08-06T08:51:34;37.10;39.50
30520;DHT22;17300;50.374;8.006;2023-08-06T08:54:02;37.00;40.90
30520;DHT22;17300;50.374;8.006;2023-08-06T08:56:29;37.20;41.50
30520;DHT22;17300;50.374;8.006;2023-08-06T08:58:56;37.60;41.90
30520;DHT22;17300;50.374;8.006;2023-08-06T09:01:24;38.10;41.60
30520;DHT22;17300;50.374;8.006;2023-08-06T09:03:51;38.50;40.00
30520;DHT22;17300;50.374;8.006;2023-08-06T09:06:21;38.80;38.50
30520;DHT22;17300;50.374;8.006;2023-08-06T09:08:56;38.90;36.80
30520;DHT22;17300;50.374;8.006;2023-08-06T09:11:26;38.70;35.50
30520;DHT22;17300;50.374;8.006;2023-08-06T09:13:53;38.30;34.60
30520;DHT22;17300;50.374;8.006;2023-08-06T09:16:20;37.70;34.00
30520;DHT22;17300;50.374;8.006;2023-08-06T09:18:47;37.10;34.10
30520;DHT22;17300;50.374;8.006;2023-08-06T09:21:14;36.30;34.30
30520;DHT22;17300;50.374;8.006;2023-08-06T09:23:43;35.80;36.50
30520;DHT22;17300;50.374;8.006;2023-08-06T09:26:13;35.30;36.70
30520;DHT22;17300;50.374;8.006;2023-08-06T09:28:40;35.00;36.80
30520;DHT22;17300;50.374;8.006;2023-08-06T09:31:08;34.60;36.70
30520;DHT22;17300;50.374;8.006;2023-08-06T09:33:36;34.20;36.90
30520;DHT22;17300;50.374;8.006;2023-08-06T09:36:07;33.90;37.20
30520;DHT22;17300;50.374;8.006;2023-08-06T09:38:37;33.60;37.40
30520;DHT22;17300;50.374;8.006;2023-08-06T09:41:06;33.30;37.60
30520;DHT22;17300;50.374;8.006;2023-08-06T09:43:40;33.00;37.70
30520;DHT22;17300;50.374;8.006;2023-08-06T09:46:11;32.70;38.30
30520;DHT22;17300;50.374;8.006;2023-08-06T09:48:39;32.50;38.80
30520;DHT22;17300;50.374;8.006;2023-08-06T09:51:08;32.30;39.10
30520;DHT22;17300;50.374;8.006;2023-08-06T09:53:36;32.10;39.20
30520;DHT22;17300;50.374;8.006;2023-08-06T09:56:03;31.90;39.20
30520;DHT22;17300;50.374;8.006;2023-08-06T09:58:32;31.90;40.80
30520;DHT22;17300;50.374;8.006;2023-08-06T10:00:59;32.00;41.50
30520;DHT22;17300;50.374;8.006;2023-08-06T10:03:28;32.30;42.50
30520;DHT22;17300;50.374;8.006;2023-08-06T10:05:55;32.90;43.90
30520;DHT22;17300;50.374;8.006;2023-08-06T10:08:23;33.70;44.80
30520;DHT22;17300;50.374;8.006;2023-08-06T10:10:49;34.90;44.70
30520;DHT22;17300;50.374;8.006;2023-08-06T10:13:17;35.90;43.50
30520;DHT22;17300;50.374;8.006;2023-08-06T10:15:46;37.10;42.40
30520;DHT22;17300;50.374;8.006;2023-08-06T10:18:13;38.30;41.20
30520;DHT22;17300;50.374;8.006;2023-08-06T10:20:43;39.30;39.80
30520;DHT22;17300;50.374;8.006;2023-08-06T10:23:10;40.40;38.80
30520;DHT22;17300;50.374;8.006;2023-08-06T10:25:40;41.10;36.40
30520;DHT22;17300;50.374;8.006;2023-08-06T10:28:08;41.70;35.10
30520;DHT22;17300;50.374;8.006;2023-08-06T10:30:42;42.00;33.20
30520;DHT22;17300;50.374;8.006;2023-08-06T10:33:10;42.00;31.00
30520;DHT22;17300;50.374;8.006;2023-08-06T10:35:38;41.90;30.90
30520;DHT22;17300;50.374;8.006;2023-08-06T10:38:09;41.40;30.00
30520;DHT22;17300;50.374;8.006;2023-08-06T10:40:37;40.60;29.40
30520;DHT22;17300;50.374;8.006;2023-08-06T10:43:05;39.60;29.40
30520;DHT22;17300;50.374;8.006;2023-08-06T10:45:37;38.50;29.60
30520;DHT22;17300;50.374;8.006;2023-08-06T10:48:05;37.30;30.00
30520;DHT22;17300;50.374;8.006;2023-08-06T10:50:33;36.20;30.50
30520;DHT22;17300;50.374;8.006;2023-08-06T10:53:04;35.00;31.30
30520;DHT22;17300;50.374;8.006;2023-08-06T10:55:32;33.80;32.40
30520;DHT22;17300;50.374;8.006;2023-08-06T10:57:59;32.80;33.10
30520;DHT22;17300;50.374;8.006;2023-08-06T11:00:25;31.70;33.50
30520;DHT22;17300;50.374;8.006;2023-08-06T11:02:53;30.70;34.50
30520;DHT22;17300;50.374;8.006;2023-08-06T11:05:20;29.60;35.50
30520;DHT22;17300;50.374;8.006;2023-08-06T11:07:48;28.80;36.70
30520;DHT22;17300;50.374;8.006;2023-08-06T11:10:16;28.00;37.80
30520;DHT22;17300;50.374;8.006;2023-08-06T11:12:43;27.40;38.70
30520;DHT22;17300;50.374;8.006;2023-08-06T11:15:10;26.70;39.50
30520;DHT22;17300;50.374;8.006;2023-08-06T11:17:39;26.20;40.80
30520;DHT22;17300;50.374;8.006;2023-08-06T11:20:07;25.70;41.30
30520;DHT22;17300;50.374;8.006;2023-08-06T11:22:33;25.20;41.70
30520;DHT22;17300;50.374;8.006;2023-08-06T11:25:09;24.70;42.30
30520;DHT22;17300;50.374;8.006;2023-08-06T11:27:36;24.30;43.10
30520;DHT22;17300;50.374;8.006;2023-08-06T11:30:04;24.00;43.10
30520;DHT22;17300;50.374;8.006;2023-08-06T11:32:31;23.60;43.60
30520;DHT22;17300;50.374;8.006;2023-08-06T11:35:08;23.30;44.10
30520;DHT22;17300;50.374;8.006;2023-08-06T11:37:36;23.00;44.60
30520;DHT22;17300;50.374;8.006;2023-08-06T11:40:10;22.80;44.90
30520;DHT22;17300;50.374;8.006;2023-08-06T11:42:37;22.60;46.00
30520;DHT22;17300;50.374;8.006;2023-08-06T11:45:05;22.60;46.20
30520;DHT22;17300;50.374;8.006;2023-08-06T11:47:32;22.50;46.50
30520;DHT22;17300;50.374;8.006;2023-08-06T11:49:58;22.40;46.60
30520;DHT22;17300;50.374;8.006;2023-08-06T11:52:26;22.30;46.60
30520;DHT22;17300;50.374;8.006;2023-08-06T11:55:04;22.30;47.30
30520;DHT22;17300;50.374;8.006;2023-08-06T11:57:33;22.20;47.90
30520;DHT22;17300;50.374;8.006;2023-08-06T12:00:04;22.20;48.10
30520;DHT22;17300;50.374;8.006;2023-08-06T12:02:32;22.30;48.10
30520;DHT22;17300;50.374;8.006;2023-08-06T12:05:03;22.30;48.10
30520;DHT22;17300;50.374;8.006;2023-08-06T12:07:31;22.30;48.20
30520;DHT22;17300;50.374;8.006;2023-08-06T12:09:59;22.30;47.90
30520;DHT22;17300;50.374;8.006;2023-08-06T12:12:27;22.30;47.80
30520;DHT22;17300;50.374;8.006;2023-08-06T12:14:54;22.30;47.70
30520;DHT22;17300;50.374;8.006;2023-08-06T12:17:21;22.30;47.80
30520;DHT22;17300;50.374;8.006;2023-08-06T12:19:48;22.20;47.90
30520;DHT22;17300;50.374;8.006;2023-08-06T12:22:15;22.20;48.00
30520;DHT22;17300;50.374;8.006;2023-08-06T12:24:41;22.20;48.20
30520;DHT22;17300;50.374;8.006;2023-08-06T12:27:08;22.10;48.50
30520;DHT22;17300;50.374;8.006;2023-08-06T12:29:37;22.10;48.50
30520;DHT22;17300;50.374;8.006;2023-08-06T12:32:04;22.00;48.70
30520;DHT22;17300;50.374;8.006;2023-08-06T12:34:31;22.00;48.90
30520;DHT22;17300;50.374;8.006;2023-08-06T12:36:57;21.90;49.20
30520;DHT22;17300;50.374;8.006;2023-08-06T12:39:24;21.90;49.60
30520;DHT22;17300;50.374;8.006;2023-08-06T12:41:54;22.00;50.00
30520;DHT22;17300;50.374;8.006;2023-08-06T12:44:21;22.00;50.00
30520;DHT22;17300;50.374;8.006;2023-08-06T12:46:49;22.10;50.10
30520;DHT22;17300;50.374;8.006;2023-08-06T12:49:15;22.10;50.20
30520;DHT22;17300;50.374;8.006;2023-08-06T12:51:42;22.20;50.30
30520;DHT22;17300;50.374;8.006;2023-08-06T12:54:09;22.20;50.20
30520;DHT22;17300;50.374;8.006;2023-08-06T12:56:36;22.20;50.20
30520;DHT22;17300;50.374;8.006;2023-08-06T12:59:02;22.30;50.40
30520;DHT22;17300;50.374;8.006;2023-08-06T13:01:29;22.30;50.40
30520;DHT22;17300;50.374;8.006;2023-08-06T13:03:58;22.40;50.40
30520;DHT22;17300;50.374;8.006;2023-08-06T13:06:24;22.40;50.40
30520;DHT22;17300;50.374;8.006;2023-08-06T13:08:51;22.40;50.60
30520;DHT22;17300;50.374;8.006;2023-08-06T13:11:18;22.40;49.80
30520;DHT22;17300;50.374;8.006;2023-08-06T13:13:45;22.30;49.70
30520;DHT22;17300;50.374;8.006;2023-08-06T13:16:12;22.20;49.50
30520;DHT22;17300;50.374;8.006;2023-08-06T13:18:38;22.10;50.00
30520;DHT22;17300;50.374;8.006;2023-08-06T13:21:06;22.10;50.60
30520;DHT22;17300;50.374;8.006;2023-08-06T13:23:33;22.10;51.10
30520;DHT22;17300;50.374;8.006;2023-08-06T13:25:59;22.20;51.50
30520;DHT22;17300;50.374;8.006;2023-08-06T13:28:26;22.20;51.50
30520;DHT22;17300;50.374;8.006;2023-08-06T13:30:53;22.30;51.50
30520;DHT22;17300;50.374;8.006;2023-08-06T13:33:19;22.40;51.50
30520;DHT22;17300;50.374;8.006;2023-08-06T13:35:46;22.50;51.50
30520;DHT22;17300;50.374;8.006;2023-08-06T13:38:14;22.60;51.40
30520;DHT22;17300;50.374;8.006;2023-08-06T13:40:41;22.60;51.50
30520;DHT22;17300;50.374;8.006;2023-08-06T13:43:09;22.70;51.40
30520;DHT22;17300;50.374;8.006;2023-08-06T13:45:36;22.70;51.40
30520;DHT22;17300;50.374;8.006;2023-08-06T13:48:03;22.70;51.50
30520;DHT22;17300;50.374;8.006;2023-08-06T13:50:30;22.80;52.10
30520;DHT22;17300;50.374;8.006;2023-08-06T13:52:57;22.80;51.40
30520;DHT22;17300;50.374;8.006;2023-08-06T13:55:25;22.90;51.40
30520;DHT22;17300;50.374;8.006;2023-08-06T13:57:52;22.90;51.50
30520;DHT22;17300;50.374;8.006;2023-08-06T14:00:18;22.90;51.20
30520;DHT22;17300;50.374;8.006;2023-08-06T14:02:45;22.90;51.10
30520;DHT22;17300;50.374;8.006;2023-08-06T14:05:12;22.90;51.00
30520;DHT22;17300;50.374;8.006;2023-08-06T14:07:39;22.90;50.70
30520;DHT22;17300;50.374;8.006;2023-08-06T14:10:06;22.90;50.90
30520;DHT22;17300;50.374;8.006;2023-08-06T14:12:36;22.90;50.70
30520;DHT22;17300;50.374;8.006;2023-08-06T14:15:03;22.80;50.70
30520;DHT22;17300;50.374;8.006;2023-08-06T14:17:29;22.80;50.70
30520;DHT22;17300;50.374;8.006;2023-08-06T14:19:56;22.80;50.70
30520;DHT22;17300;50.374;8.006;2023-08-06T14:22:23;22.70;50.60
30520;DHT22;17300;50.374;8.006;2023-08-06T14:24:49;22.60;50.50
30520;DHT22;17300;50.374;8.006;2023-08-06T14:27:16;22.60;50.70
30520;DHT22;17300;50.374;8.006;2023-08-06T14:29:44;22.50;50.70
30520;DHT22;17300;50.374;8.006;2023-08-06T14:32:11;22.40;51.00
30520;DHT22;17300;50.374;8.006;2023-08-06T14:34:37;22.30;51.00
30520;DHT22;17300;50.374;8.006;2023-08-06T14:37:04;22.30;51.10
30520;DHT22;17300;50.374;8.006;2023-08-06T14:39:31;22.20;51.10
30520;DHT22;17300;50.374;8.006;2023-08-06T14:41:58;22.10;51.10
30520;DHT22;17300;50.374;8.006;2023-08-06T14:44:24;22.00;51.30
30520;DHT22;17300;50.374;8.006;2023-08-06T14:46:52;22.00;51.40
30520;DHT22;17300;50.374;8.006;2023-08-06T14:49:19;22.00;51.60
30520;DHT22;17300;50.374;8.006;2023-08-06T14:51:46;21.90;51.30
30520;DHT22;17300;50.374;8.006;2023-08-06T14:54:12;21.90;51.30
30520;DHT22;17300;50.374;8.006;2023-08-06T14:56:39;21.90;51.50
30520;DHT22;17300;50.374;8.006;2023-08-06T14:59:05;21.80;51.40
30520;DHT22;17300;50.374;8.006;2023-08-06T15:01:32;21.80;51.40
30520;DHT22;17300;50.374;8.006;2023-08-06T15:04:00;21.80;51.60
30520;DHT22;17300;50.374;8.006;2023-08-06T15:06:27;21.70;51.40
30520;DHT22;17300;50.374;8.006;2023-08-06T15:08:54;21.70;51.50
30520;DHT22;17300;50.374;8.006;2023-08-06T15:11:23;21.70;51.60
30520;DHT22;17300;50.374;8.006;2023-08-06T15:13:50;21.70;51.80
30520;DHT22;17300;50.374;8.006;2023-08-06T15:16:16;21.70;51.80
30520;DHT22;17300;50.374;8.006;2023-08-06T15:18:43;21.70;51.90
30520;DHT22;17300;50.374;8.006;2023-08-06T15:21:11;21.70;52.00
30520;DHT22;17300;50.374;8.006;2023-08-06T15:23:38;21.70;52.00
30520;DHT22;17300;50.374;8.006;2023-08-06T15:26:05;21.80;52.00
30520;DHT22;17300;50.374;8.006;2023-08-06T15:28:31;21.80;51.80
30520;DHT22;17300;50.374;8.006;2023-08-06T15:30:58;21.80;51.80